Time;durP1;ratioP1;P1;durP2;ratioP2;P2;SDS_P1;SDS_P2;PMS_P1;PMS_P2;Temp;Humidity;BMP_temperature;BMP_pressure;BME280_temperature;BME280_humidity;BME280_pressure;Samples;Min_cycle;Max_cycle;Signal;HPM_P1;HPM_P2
2021/09/21 00:00:51;;;;;;;2.28;1.80;;;11.20;99.90;;;;;;4922774;29;20119;-88
2021/09/21 00:03:16;;;;;;;2.70;1.90;;;11.20;99.90;;;;;;4922454;29;20040;-89
2021/09/21 00:05:42;;;;;;;2.25;1.70;;;11.30;99.90;;;;;;4937822;29;20043;-89
2021/09/21 00:08:08;;;;;;;2.75;1.60;;;11.30;99.90;;;;;;4938184;29;20036;-89
2021/09/21 00:10:34;;;;;;;2.72;2.00;;;11.20;99.90;;;;;;4938007;29;20047;-89
2021/09/21 00:13:02;;;;;;;1.60;1.42;;;11.20;99.90;;;;;;4922566;29;20550;-89
2021/09/21 00:15:28;;;;;;;2.00;1.58;;;11.20;99.90;;;;;;4923104;29;20047;-89
2021/09/21 00:17:54;;;;;;;2.35;1.85;;;11.20;99.90;;;;;;4939404;29;20039;-88
2021/09/21 00:20:20;;;;;;;2.15;1.90;;;11.20;99.90;;;;;;4937641;29;20039;-88
2021/09/21 00:22:46;;;;;;;3.35;1.92;;;11.20;99.90;;;;;;4941003;29;20089;-89
2021/09/21 00:25:14;;;;;;;5.32;1.63;;;11.20;99.90;;;;;;4945803;29;20106;-88
2021/09/21 00:27:44;;;;;;;1.88;1.40;;;11.20;99.90;;;;;;4946017;29;20038;-88
2021/09/21 00:30:11;;;;;;;2.88;2.03;;;11.20;99.90;;;;;;4940101;29;20032;-89
2021/09/21 00:32:37;;;;;;;2.42;1.90;;;11.20;99.90;;;;;;4937737;29;20040;-89
2021/09/21 00:35:04;;;;;;;2.15;1.52;;;11.10;99.90;;;;;;4937687;29;20046;-89
2021/09/21 00:37:30;;;;;;;2.17;1.98;;;11.10;99.90;;;;;;4937484;29;20036;-89
2021/09/21 00:39:55;;;;;;;2.17;1.60;;;11.10;99.90;;;;;;4937586;29;20042;-88
2021/09/21 00:42:29;;;;;;;1.67;1.42;;;11.00;99.90;;;;;;4937378;29;20058;-89
2021/09/21 00:45:00;;;;;;;1.52;1.40;;;11.00;99.90;;;;;;4937301;29;20042;-88
2021/09/21 00:47:27;;;;;;;2.17;1.95;;;11.00;99.90;;;;;;4937323;29;20040;-89
2021/09/21 00:49:52;;;;;;;2.38;1.38;;;11.00;99.90;;;;;;4937284;29;20479;-89
2021/09/21 00:52:19;;;;;;;2.30;1.60;;;11.00;99.90;;;;;;4937297;29;20139;-89
2021/09/21 00:54:45;;;;;;;1.38;1.20;;;11.00;99.90;;;;;;4937387;29;20503;-88
2021/09/21 00:57:11;;;;;;;1.48;1.23;;;10.90;99.90;;;;;;4938669;29;20036;-89
2021/09/21 00:59:37;;;;;;;2.08;1.50;;;11.00;99.90;;;;;;4921114;29;20042;-88
2021/09/21 01:02:03;;;;;;;1.90;1.48;;;11.00;99.90;;;;;;4937117;29;20487;-88
2021/09/21 01:04:30;;;;;;;2.47;1.63;;;11.00;99.90;;;;;;4937608;29;20087;-89
2021/09/21 01:06:56;;;;;;;2.03;1.45;;;11.00;99.90;;;;;;4937054;29;20046;-88
2021/09/21 01:09:24;;;;;;;1.10;1.00;;;10.90;99.90;;;;;;4937023;29;20044;-89
2021/09/21 01:11:57;;;;;;;1.63;1.23;;;10.90;99.90;;;;;;4920797;29;20466;-89
2021/09/21 01:14:23;;;;;;;1.90;1.48;;;10.90;99.90;;;;;;4937036;29;20051;-88
2021/09/21 01:16:51;;;;;;;1.75;1.30;;;10.90;99.90;;;;;;4938125;29;20031;-88
2021/09/21 01:19:17;;;;;;;2.65;1.20;;;10.80;99.90;;;;;;4921114;29;20040;-88
2021/09/21 01:21:44;;;;;;;1.63;1.00;;;10.80;99.90;;;;;;4937955;29;20094;-89
2021/09/21 01:24:12;;;;;;;1.30;1.20;;;10.80;99.90;;;;;;4920940;29;20043;-89
2021/09/21 01:26:38;;;;;;;1.05;0.65;;;10.70;99.90;;;;;;4920608;29;20043;-88
2021/09/21 01:29:04;;;;;;;1.00;0.90;;;10.70;99.90;;;;;;4937853;29;20035;-88
2021/09/21 01:31:30;;;;;;;1.40;0.95;;;10.70;99.90;;;;;;4936473;29;20118;-88
2021/09/21 01:33:58;;;;;;;0.85;0.85;;;10.70;99.90;;;;;;4936498;29;20163;-89
2021/09/21 01:36:25;;;;;;;0.73;0.70;;;10.70;99.90;;;;;;4936596;29;20554;-88
2021/09/21 01:38:52;;;;;;;0.85;0.85;;;10.70;99.90;;;;;;4936454;29;20043;-88
2021/09/21 01:41:18;;;;;;;0.88;0.88;;;10.70;99.90;;;;;;4919925;29;20596;-89
2021/09/21 01:43:45;;;;;;;0.93;0.68;;;10.70;99.90;;;;;;4937473;29;20032;-88
2021/09/21 01:46:15;;;;;;;0.70;0.70;;;10.70;99.90;;;;;;4937561;29;20042;-89
2021/09/21 01:48:40;;;;;;;1.33;1.20;;;10.60;99.90;;;;;;4936136;29;20040;-89
2021/09/21 01:51:09;;;;;;;1.00;0.75;;;10.60;99.90;;;;;;4936093;29;20059;-89
2021/09/21 01:58:50;;;;;;;0.73;0.50;;;10.50;99.90;;;;;;4937328;29;20071;-89
2021/09/21 02:01:19;;;;;;;1.27;0.85;;;10.50;99.90;;;;;;4938266;29;20032;-89
2021/09/21 02:03:45;;;;;;;0.50;0.50;;;10.50;99.90;;;;;;4936795;29;20032;-89
2021/09/21 02:06:11;;;;;;;0.77;0.63;;;10.50;99.90;;;;;;4920830;29;20138;-88
2021/09/21 02:08:37;;;;;;;1.48;1.05;;;10.50;99.90;;;;;;4937567;29;20095;-88
2021/09/21 02:11:03;;;;;;;0.85;0.85;;;10.40;99.90;;;;;;4920215;29;20035;-89
2021/09/21 02:13:29;;;;;;;0.75;0.75;;;10.40;99.90;;;;;;4920151;29;20036;-88
2021/09/21 02:15:55;;;;;;;0.68;0.68;;;10.30;99.90;;;;;;4936881;29;20036;-89
2021/09/21 02:18:21;;;;;;;0.60;0.60;;;10.30;99.90;;;;;;4920069;29;20036;-89
2021/09/21 02:20:47;;;;;;;0.85;0.50;;;10.30;99.90;;;;;;4919899;29;20091;-89
2021/09/21 02:23:12;;;;;;;0.80;0.77;;;10.30;99.90;;;;;;4919686;29;20083;-89
2021/09/21 02:25:38;;;;;;;0.60;0.60;;;10.30;99.90;;;;;;4919933;29;20043;-89
2021/09/21 02:28:04;;;;;;;0.63;0.63;;;10.30;99.90;;;;;;4937051;29;20039;-88
2021/09/21 02:30:30;;;;;;;0.70;0.70;;;10.20;99.90;;;;;;4919610;29;20482;-88
2021/09/21 02:32:55;;;;;;;0.93;0.55;;;10.20;99.90;;;;;;4936823;29;20036;-89
2021/09/21 02:35:21;;;;;;;0.50;0.50;;;10.20;99.90;;;;;;4936806;29;20327;-88
2021/09/21 02:37:48;;;;;;;0.80;0.80;;;10.20;99.90;;;;;;4935416;29;20067;-89
2021/09/21 02:40:15;;;;;;;0.73;0.70;;;10.10;99.90;;;;;;4919822;29;20086;-89
2021/09/21 02:42:41;;;;;;;1.65;1.50;;;10.10;99.90;;;;;;4919663;29;20040;-89
2021/09/21 02:45:08;;;;;;;1.17;0.90;;;10.00;99.90;;;;;;4919672;29;20042;-89
2021/09/21 02:47:34;;;;;;;1.42;1.25;;;9.90;99.90;;;;;;4919655;29;20467;-89
2021/09/21 02:50:00;;;;;;;2.15;1.92;;;9.90;99.90;;;;;;4936282;29;20027;-88
2021/09/21 02:52:26;;;;;;;1.38;0.90;;;9.80;99.90;;;;;;4919511;29;20380;-89
2021/09/21 02:54:52;;;;;;;2.08;1.45;;;9.80;99.90;;;;;;4919173;29;20087;-89
2021/09/21 02:57:18;;;;;;;2.80;2.13;;;9.80;99.90;;;;;;4919642;29;20119;-89
2021/09/21 02:59:44;;;;;;;1.52;1.42;;;9.70;99.90;;;;;;4919513;29;20127;-89
2021/09/21 03:02:10;;;;;;;5.63;1.60;;;9.70;99.90;;;;;;4919829;29;20100;-89
2021/09/21 03:04:40;;;;;;;2.58;2.03;;;9.70;99.90;;;;;;4937164;29;20118;-88
2021/09/21 03:07:09;;;;;;;2.00;1.67;;;9.70;99.90;;;;;;4936881;29;20075;-89
2021/09/21 03:10:06;;;;;;;2.92;2.05;;;9.60;99.90;;;;;;4919413;29;20036;-89
2021/09/21 03:12:59;;;;;;;3.38;2.22;;;9.60;99.90;;;;;;4934902;29;20074;-89
2021/09/21 03:17:56;;;;;;;;;;;9.60;99.90;;;;;;4937072;29;20046;-89
2021/09/21 03:20:21;;;;;;;3.17;1.98;;;9.50;99.90;;;;;;4919370;29;19910;-88
2021/09/21 03:22:47;;;;;;;2.35;1.70;;;9.50;99.90;;;;;;4919022;29;20031;-88
2021/09/21 03:25:14;;;;;;;1.85;1.65;;;9.50;99.90;;;;;;4936208;29;20040;-89
2021/09/21 03:27:39;;;;;;;2.80;2.28;;;9.50;99.90;;;;;;4919129;29;20044;-89
2021/09/21 03:30:06;;;;;;;2.97;2.25;;;9.40;99.90;;;;;;4936103;29;20087;-89
2021/09/21 03:32:34;;;;;;;2.42;1.98;;;9.40;99.90;;;;;;4919219;29;20048;-89
2021/09/21 03:35:00;;;;;;;2.65;2.10;;;9.30;99.90;;;;;;4919312;29;20036;-89
2021/09/21 03:37:25;;;;;;;3.35;2.40;;;9.30;99.90;;;;;;4919170;29;20040;-88
2021/09/21 03:39:51;;;;;;;3.60;2.53;;;9.20;99.90;;;;;;4919142;29;20039;-89
2021/09/21 03:42:17;;;;;;;3.28;2.10;;;9.20;99.90;;;;;;4919473;29;20047;-89
2021/09/21 03:44:43;;;;;;;3.45;2.03;;;9.10;99.90;;;;;;4919001;29;20051;-89
2021/09/21 03:47:09;;;;;;;3.08;2.33;;;9.10;99.90;;;;;;4934730;29;20083;-89
2021/09/21 03:49:35;;;;;;;3.22;2.05;;;9.10;99.90;;;;;;4934963;29;20067;-88
2021/09/21 03:52:00;;;;;;;1.85;1.60;;;9.10;99.90;;;;;;4936120;29;20035;-89
2021/09/21 03:54:26;;;;;;;2.67;2.25;;;9.10;99.90;;;;;;4934540;29;20447;-89
2021/09/21 03:56:52;;;;;;;6.68;3.35;;;9.10;99.90;;;;;;4934832;29;20183;-88
2021/09/21 03:59:17;;;;;;;3.65;2.80;;;9.10;99.90;;;;;;4936027;29;20040;-88
2021/09/21 04:01:43;;;;;;;3.10;2.45;;;9.10;99.90;;;;;;4934669;29;20468;-88
2021/09/21 04:04:09;;;;;;;3.15;2.22;;;9.00;99.90;;;;;;4919003;29;20036;-89
2021/09/21 04:06:35;;;;;;;3.70;2.55;;;9.00;99.90;;;;;;4938264;29;20126;-88
2021/09/21 04:09:01;;;;;;;4.30;3.58;;;9.00;99.90;;;;;;4938192;29;20472;-88
2021/09/21 04:11:26;;;;;;;5.95;3.10;;;9.00;99.90;;;;;;4938572;29;20444;-88
2021/09/21 04:13:52;;;;;;;3.92;2.90;;;9.00;99.90;;;;;;4938759;29;20031;-88
2021/09/21 04:16:18;;;;;;;4.05;2.47;;;9.00;99.90;;;;;;4938026;29;20400;-88
2021/09/21 04:18:45;;;;;;;5.05;3.55;;;8.90;99.90;;;;;;4922184;29;20035;-88
2021/09/21 04:21:11;;;;;;;3.55;2.60;;;8.90;99.90;;;;;;4922061;29;20486;-88
2021/09/21 04:23:39;;;;;;;4.20;2.55;;;9.00;99.90;;;;;;4922048;29;20114;-88
2021/09/21 04:26:06;;;;;;;5.82;4.45;;;9.00;99.90;;;;;;4921879;29;20046;-88
2021/09/21 04:28:32;;;;;;;4.55;3.17;;;8.90;99.90;;;;;;4922217;29;20122;-88
2021/09/21 04:31:07;;;;;;;4.70;3.40;;;8.90;99.90;;;;;;4922551;29;20126;-88
2021/09/21 04:33:38;;;;;;;5.88;3.90;;;8.90;99.90;;;;;;4922784;29;20368;-88
2021/09/21 04:36:05;;;;;;;4.15;2.80;;;8.90;99.90;;;;;;4921526;29;20493;-88
2021/09/21 04:38:31;;;;;;;4.00;2.85;;;8.90;99.90;;;;;;4921697;29;20044;-88
2021/09/21 04:40:57;;;;;;;4.70;3.10;;;8.90;99.90;;;;;;4922371;29;20032;-88
2021/09/21 04:43:23;;;;;;;3.38;3.03;;;9.00;99.90;;;;;;4921765;29;20040;-88
2021/09/21 04:45:49;;;;;;;4.40;2.80;;;9.00;99.90;;;;;;4922143;29;20495;-88
2021/09/21 04:48:15;;;;;;;4.65;3.67;;;9.00;99.90;;;;;;4921042;29;20143;-88
2021/09/21 04:50:40;;;;;;;4.72;3.25;;;9.00;99.90;;;;;;4920917;29;20031;-87
2021/09/21 04:53:06;;;;;;;3.00;2.30;;;9.00;99.90;;;;;;4936788;29;20061;-88
2021/09/21 04:55:32;;;;;;;4.18;2.72;;;9.10;99.90;;;;;;4937027;29;20048;-88
2021/09/21 04:57:58;;;;;;;3.50;2.05;;;9.10;99.90;;;;;;4938392;29;20132;-88
2021/09/21 05:00:24;;;;;;;4.43;2.97;;;9.20;99.90;;;;;;4921101;29;20534;-88
2021/09/21 05:02:49;;;;;;;3.92;2.58;;;9.20;99.90;;;;;;4921227;29;20134;-88
2021/09/21 05:05:16;;;;;;;3.78;2.92;;;9.20;99.90;;;;;;4936523;29;20063;-88
2021/09/21 05:07:42;;;;;;;3.83;2.42;;;9.20;99.90;;;;;;4937692;29;20067;-88
2021/09/21 05:10:08;;;;;;;4.15;2.75;;;9.20;99.90;;;;;;4937063;29;20051;-88
2021/09/21 05:12:34;;;;;;;4.00;2.92;;;9.10;99.90;;;;;;4934236;29;20059;-88
2021/09/21 05:15:00;;;;;;;4.72;2.45;;;9.00;99.90;;;;;;4938031;29;20050;-88
2021/09/21 05:17:26;;;;;;;3.42;2.60;;;9.00;99.90;;;;;;4920780;29;20399;-88
2021/09/21 05:19:52;;;;;;;3.25;2.17;;;8.90;99.90;;;;;;4936171;29;20043;-89
2021/09/21 05:22:18;;;;;;;3.45;2.58;;;8.90;99.90;;;;;;4936581;29;20086;-89
2021/09/21 05:24:44;;;;;;;2.15;1.92;;;8.90;99.90;;;;;;4935829;29;20048;-89
2021/09/21 05:27:10;;;;;;;2.13;1.90;;;9.00;99.90;;;;;;4936372;29;20055;-89
2021/09/21 05:29:35;;;;;;;2.92;2.28;;;9.00;99.90;;;;;;4937231;29;20035;-89
2021/09/21 05:32:01;;;;;;;4.22;2.58;;;9.00;99.90;;;;;;4936794;29;20478;-89
2021/09/21 05:34:27;;;;;;;2.83;2.22;;;9.10;99.90;;;;;;4936987;29;20035;-89
2021/09/21 05:36:53;;;;;;;3.63;2.47;;;9.10;99.90;;;;;;4935406;29;20042;-90
2021/09/21 05:39:19;;;;;;;5.00;3.17;;;9.20;99.90;;;;;;4907467;29;20119;-89
2021/09/21 05:41:45;;;;;;;4.38;3.53;;;9.20;99.90;;;;;;4917241;29;20051;-90
2021/09/21 05:44:10;;;;;;;4.60;2.85;;;9.30;99.90;;;;;;4917127;29;20135;-89
2021/09/21 05:46:36;;;;;;;3.50;2.45;;;9.20;99.90;;;;;;4916880;29;20064;-90
2021/09/21 05:49:03;;;;;;;3.25;2.58;;;9.30;99.90;;;;;;4917894;29;20035;-90
2021/09/21 05:51:29;;;;;;;5.40;2.80;;;9.40;99.90;;;;;;4917490;29;20460;-89
2021/09/21 05:53:55;;;;;;;4.05;2.65;;;9.40;99.90;;;;;;4916513;29;20056;-89
2021/09/21 05:56:22;;;;;;;5.88;3.40;;;9.50;99.90;;;;;;4916737;29;20139;-88
2021/09/21 05:58:48;;;;;;;2.67;2.15;;;9.50;99.80;;;;;;4916514;29;20040;-89
2021/09/21 06:01:14;;;;;;;2.85;2.33;;;9.50;99.90;;;;;;4917214;29;20039;-89
2021/09/21 06:03:40;;;;;;;4.63;2.55;;;9.50;99.90;;;;;;4918871;29;20044;-91
2021/09/21 06:06:06;;;;;;;3.50;2.80;;;9.60;99.70;;;;;;4923364;29;20040;-90
2021/09/21 06:08:32;;;;;;;4.45;2.10;;;9.50;99.30;;;;;;4916253;29;20144;-90
2021/09/21 06:10:58;;;;;;;3.92;2.45;;;9.50;99.40;;;;;;4929108;29;20087;-89
2021/09/21 06:13:24;;;;;;;3.95;2.50;;;9.40;99.50;;;;;;4919808;29;20344;-89
2021/09/21 06:15:49;;;;;;;3.78;2.60;;;9.50;99.90;;;;;;4926661;29;20476;-88
2021/09/21 06:18:16;;;;;;;2.40;2.20;;;9.50;99.50;;;;;;4918648;29;20092;-89
2021/09/21 06:20:43;;;;;;;2.67;2.03;;;9.50;99.20;;;;;;4918947;29;20147;-89
2021/09/21 06:23:09;;;;;;;3.50;2.55;;;9.60;99.50;;;;;;4911114;29;20039;-89
2021/09/21 06:25:36;;;;;;;3.78;2.40;;;9.60;99.30;;;;;;4920114;29;20047;-89
2021/09/21 06:28:02;;;;;;;3.50;2.50;;;9.70;99.30;;;;;;4905667;29;20032;-89
2021/09/21 06:30:28;;;;;;;2.58;2.03;;;9.80;99.10;;;;;;4933544;29;20028;-89
2021/09/21 06:32:54;;;;;;;4.20;2.38;;;9.90;99.00;;;;;;4928906;29;20050;-89
2021/09/21 06:35:19;;;;;;;3.15;2.08;;;10.00;98.30;;;;;;4920609;29;20035;-89
2021/09/21 06:37:47;;;;;;;4.00;2.35;;;10.00;98.10;;;;;;4918542;29;20399;-89
2021/09/21 06:40:12;;;;;;;3.13;1.83;;;10.00;97.60;;;;;;4938105;29;20534;-88
2021/09/21 06:42:41;;;;;;;2.30;1.83;;;10.10;97.80;;;;;;4923240;29;20036;-88
2021/09/21 06:45:08;;;;;;;1.77;1.60;;;10.20;97.80;;;;;;4916777;29;20135;-88
2021/09/21 06:47:33;;;;;;;3.42;2.30;;;10.30;97.30;;;;;;4932411;29;20044;-89
2021/09/21 06:50:00;;;;;;;2.00;1.80;;;10.40;96.70;;;;;;4928524;29;20102;-90
2021/09/21 06:52:25;;;;;;;2.40;1.90;;;10.40;96.80;;;;;;4906516;29;20051;-89
2021/09/21 06:54:51;;;;;;;2.33;1.58;;;10.60;97.10;;;;;;4915936;29;20056;-89
2021/09/21 06:57:17;;;;;;;2.60;2.17;;;10.70;96.90;;;;;;4918609;29;20476;-89
2021/09/21 06:59:43;;;;;;;2.05;1.85;;;10.80;96.30;;;;;;4916361;29;20387;-90
2021/09/21 07:02:09;;;;;;;4.40;2.00;;;10.90;95.00;;;;;;4934681;29;20036;-90
2021/09/21 07:04:35;;;;;;;2.58;1.85;;;10.90;93.80;;;;;;4926946;29;20040;-88
2021/09/21 07:07:01;;;;;;;3.63;2.28;;;10.80;92.60;;;;;;4934930;29;20063;-89
2021/09/21 07:09:29;;;;;;;1.75;1.63;;;10.80;92.60;;;;;;4913377;29;20063;-89
2021/09/21 07:11:55;;;;;;;2.95;2.05;;;10.80;92.60;;;;;;4917745;29;20127;-89
2021/09/21 07:14:21;;;;;;;4.95;2.10;;;10.80;92.40;;;;;;4932663;29;20042;-89
2021/09/21 07:16:48;;;;;;;2.97;2.00;;;10.80;91.90;;;;;;4935552;29;20112;-89
2021/09/21 07:19:15;;;;;;;2.17;1.92;;;10.80;91.60;;;;;;4935177;29;20739;-90
2021/09/21 07:21:47;;;;;;;2.05;1.88;;;10.80;91.40;;;;;;4937565;29;20036;-92
2021/09/21 07:24:17;;;;;;;2.80;2.13;;;10.80;91.40;;;;;;4939702;29;20032;-91
2021/09/21 07:26:50;;;;;;;2.97;2.30;;;10.80;91.50;;;;;;4945082;29;20475;-91
2021/09/21 07:29:17;;;;;;;;;;;10.80;91.00;;;;;;4928954;29;20042;-91
2021/09/21 07:31:42;;;;;;;3.42;2.35;;;10.70;91.20;;;;;;4938085;29;19957;-93
2021/09/21 07:34:16;;;;;;;2.88;2.22;;;10.80;92.20;;;;;;4936425;29;20035;-91
2021/09/21 07:36:44;;;;;;;3.60;2.30;;;10.80;91.50;;;;;;4940280;29;20040;-92
2021/09/21 07:39:10;;;;;;;1.70;1.60;;;10.90;91.10;;;;;;4936435;29;20127;-92
2021/09/21 07:41:35;;;;;;;1.83;1.70;;;10.90;91.30;;;;;;4935525;29;20543;-91
2021/09/21 07:44:01;;;;;;;1.95;1.70;;;10.90;89.90;;;;;;4940070;29;20046;-92
2021/09/21 07:46:27;;;;;;;2.72;2.00;;;10.80;90.30;;;;;;4922351;29;20118;-91
2021/09/21 07:48:53;;;;;;;2.00;1.63;;;10.90;90.50;;;;;;4938134;29;20471;-91
2021/09/21 07:51:21;;;;;;;4.82;2.25;;;10.90;90.40;;;;;;4939138;29;20103;-91
2021/09/21 07:53:51;;;;;;;2.85;1.83;;;10.90;89.70;;;;;;4925103;29;20062;-91
2021/09/21 07:56:17;;;;;;;2.20;1.60;;;11.00;90.30;;;;;;4908252;29;20040;-91
2021/09/21 07:59:01;;;;;;;2.25;1.88;;;11.10;90.40;;;;;;4911829;29;20044;-92
2021/09/21 08:01:29;;;;;;;2.60;2.00;;;11.20;89.10;;;;;;4933245;29;20048;-93
2021/09/21 08:03:56;;;;;;;4.18;1.70;;;11.30;90.00;;;;;;4939126;29;20032;-89
2021/09/21 08:06:23;;;;;;;2.75;1.90;;;11.50;90.50;;;;;;4937924;29;20051;-91
2021/09/21 08:08:49;;;;;;;1.67;1.40;;;11.70;88.40;;;;;;4940536;29;20035;-90
2021/09/21 08:11:16;;;;;;;1.42;1.33;;;11.70;87.70;;;;;;4937976;29;20039;-91
2021/09/21 08:13:42;;;;;;;1.98;1.75;;;11.80;88.00;;;;;;4937115;29;20042;-90
2021/09/21 08:16:11;;;;;;;2.47;1.80;;;11.70;87.90;;;;;;4937682;29;20039;-91
2021/09/21 08:18:36;;;;;;;1.50;1.40;;;11.70;87.40;;;;;;4921894;29;20138;-90
2021/09/21 08:21:02;;;;;;;2.40;1.65;;;11.70;87.10;;;;;;4939991;29;20122;-90
2021/09/21 08:23:29;;;;;;;2.08;1.85;;;11.60;87.10;;;;;;4925997;29;20054;-89
2021/09/21 08:25:55;;;;;;;1.77;1.60;;;11.50;87.70;;;;;;4928339;29;20100;-89
2021/09/21 08:28:20;;;;;;;1.83;1.25;;;11.60;88.30;;;;;;4921479;29;20051;-90
2021/09/21 08:30:47;;;;;;;2.60;2.00;;;11.70;88.60;;;;;;4904441;29;20036;-89
2021/09/21 08:33:13;;;;;;;1.98;1.73;;;11.70;88.50;;;;;;4903704;29;20368;-90
2021/09/21 08:35:39;;;;;;;1.70;1.52;;;11.80;87.10;;;;;;4911662;29;20031;-88
2021/09/21 08:38:06;;;;;;;3.95;1.83;;;11.80;86.90;;;;;;4935534;29;20038;-89
2021/09/21 08:40:32;;;;;;;2.40;1.75;;;11.70;86.80;;;;;;4921420;29;20055;-89
2021/09/21 08:43:01;;;;;;;3.63;1.77;;;11.70;86.80;;;;;;4906113;29;20040;-90
2021/09/21 08:45:29;;;;;;;2.13;1.77;;;11.70;87.20;;;;;;4921551;29;20077;-91
2021/09/21 08:47:55;;;;;;;1.98;1.73;;;11.60;84.90;;;;;;4921214;29;20111;-89
2021/09/21 08:50:22;;;;;;;8.80;1.92;;;11.50;85.20;;;;;;4932936;29;20059;-87
2021/09/21 08:52:48;;;;;;;2.22;1.98;;;11.50;86.40;;;;;;4915509;29;20051;-90
2021/09/21 08:55:15;;;;;;;3.60;2.10;;;11.40;84.80;;;;;;4934761;29;20103;-89
2021/09/21 08:57:43;;;;;;;2.92;2.00;;;11.50;85.70;;;;;;4913843;29;20048;-88
2021/09/21 09:00:21;;;;;;;1.70;1.60;;;11.70;85.40;;;;;;4914542;29;20081;-86
2021/09/21 09:02:48;;;;;;;1.88;1.77;;;11.90;83.20;;;;;;4891486;29;20059;-87
2021/09/21 09:05:14;;;;;;;2.85;1.60;;;12.00;82.70;;;;;;4919256;29;20048;-89
2021/09/21 09:07:48;;;;;;;1.63;1.50;;;12.00;82.90;;;;;;4920026;29;20041;-89
2021/09/21 09:10:14;;;;;;;1.63;1.13;;;11.90;79.50;;;;;;4918201;29;20091;-88
2021/09/21 09:12:42;;;;;;;1.40;1.25;;;11.80;80.80;;;;;;4903441;29;20052;-90
2021/09/21 09:15:26;;;;;;;1.73;1.50;;;11.70;81.40;;;;;;4918594;29;20043;-91
2021/09/21 09:17:57;;;;;;;1.27;1.17;;;11.60;79.90;;;;;;4932466;29;20130;-91
2021/09/21 09:20:37;;;;;;;1.40;1.30;;;11.50;82.10;;;;;;4934556;29;20439;-90
2021/09/21 09:23:09;;;;;;;2.00;1.38;;;11.50;81.40;;;;;;4914200;29;20060;-90
2021/09/21 09:25:49;;;;;;;1.52;1.38;;;11.60;82.80;;;;;;4917314;29;20052;-90
2021/09/21 09:28:25;;;;;;;1.25;0.98;;;11.80;82.20;;;;;;4903922;29;20073;-92
2021/09/21 09:30:53;;;;;;;1.33;1.13;;;11.80;80.80;;;;;;4918289;29;20496;-90
2021/09/21 09:33:24;;;;;;;2.05;1.27;;;11.80;81.10;;;;;;4904168;29;20052;-90
2021/09/21 09:35:53;;;;;;;1.85;1.38;;;11.70;80.50;;;;;;4923392;29;20164;-90
2021/09/21 09:38:23;;;;;;;1.48;1.13;;;11.60;80.10;;;;;;4904377;29;20044;-91
2021/09/21 09:40:52;;;;;;;1.33;0.98;;;11.40;80.30;;;;;;4919065;29;20145;-91
2021/09/21 09:43:24;;;;;;;1.80;1.15;;;11.30;81.60;;;;;;4903043;29;20040;-91
2021/09/21 09:45:53;;;;;;;3.42;1.20;;;11.30;81.90;;;;;;4903104;29;20132;-91
2021/09/21 09:48:26;;;;;;;2.08;1.65;;;11.20;81.90;;;;;;4917668;29;20144;-91
2021/09/21 09:50:55;;;;;;;2.50;1.27;;;11.20;81.70;;;;;;4935288;29;20046;-92
2021/09/21 09:53:23;;;;;;;1.83;1.30;;;11.20;82.30;;;;;;4902735;29;20040;-91
2021/09/21 09:55:53;;;;;;;1.85;1.30;;;11.20;82.60;;;;;;4936986;29;20126;-92
2021/09/21 09:58:20;;;;;;;1.33;1.20;;;11.20;82.50;;;;;;4937123;29;20385;-90
2021/09/21 10:00:49;;;;;;;1.83;1.42;;;11.20;81.60;;;;;;4937353;29;20039;-90
2021/09/21 10:03:22;;;;;;;1.20;1.10;;;11.20;81.90;;;;;;4923613;29;20039;-90
2021/09/21 10:05:49;;;;;;;1.25;1.15;;;11.20;82.00;;;;;;4906943;29;20054;-90
2021/09/21 10:08:16;;;;;;;5.63;1.77;;;11.10;82.60;;;;;;4921333;29;20046;-91
2021/09/21 10:10:46;;;;;;;1.65;1.55;;;11.10;82.80;;;;;;4936560;29;20039;-91
2021/09/21 10:13:15;;;;;;;1.55;1.00;;;11.10;83.00;;;;;;4921604;29;20051;-91
2021/09/21 10:15:42;;;;;;;1.63;1.35;;;11.00;83.00;;;;;;4919334;29;20047;-90
2021/09/21 10:18:17;;;;;;;1.33;1.23;;;10.90;83.70;;;;;;4938389;29;20043;-90
2021/09/21 10:20:57;;;;;;;3.00;1.38;;;10.80;83.70;;;;;;4918717;29;20050;-92
2021/09/21 10:23:33;;;;;;;1.10;1.05;;;10.80;84.20;;;;;;4927478;29;20045;-91
2021/09/21 10:26:23;;;;;;;1.20;1.10;;;10.80;84.30;;;;;;4920571;29;20111;-92
2021/09/21 10:28:51;;;;;;;4.20;1.10;;;10.70;84.30;;;;;;4914572;29;20075;-90
2021/09/21 10:31:22;;;;;;;1.55;1.27;;;10.80;84.80;;;;;;4937483;29;20051;-91
2021/09/21 10:33:48;;;;;;;1.20;1.00;;;10.80;85.20;;;;;;4901799;29;20092;-92
2021/09/21 10:36:18;;;;;;;1.73;1.30;;;10.90;84.60;;;;;;4935850;29;20035;-91
2021/09/21 10:39:12;;;;;;;1.35;1.23;;;10.90;84.60;;;;;;4937102;29;20048;-92
2021/09/21 10:41:58;;;;;;;1.13;1.02;;;10.90;85.10;;;;;;4940647;29;20043;-89
2021/09/21 10:44:25;;;;;;;1.42;1.30;;;10.80;86.40;;;;;;4923981;29;20141;-89
2021/09/21 10:47:06;;;;;;;1.33;1.15;;;10.70;87.30;;;;;;4923087;29;20032;-90
2021/09/21 10:49:41;;;;;;;1.23;1.13;;;10.60;88.20;;;;;;4920483;29;20066;-89
2021/09/21 10:52:09;;;;;;;0.73;0.73;;;10.70;89.70;;;;;;4919877;29;20040;-91
2021/09/21 10:54:43;;;;;;;2.55;1.17;;;10.70;90.00;;;;;;4916924;29;20138;-93
2021/09/21 10:57:17;;;;;;;0.90;0.88;;;10.80;90.20;;;;;;4920207;29;20082;-90
2021/09/21 10:59:57;;;;;;;0.90;0.85;;;11.00;89.90;;;;;;4917976;29;20051;-87
2021/09/21 11:02:28;;;;;;;1.73;1.20;;;11.20;89.80;;;;;;4916667;29;20032;-88
2021/09/21 11:04:55;;;;;;;1.30;0.90;;;11.40;87.90;;;;;;4916547;29;20799;-89
2021/09/21 11:07:21;;;;;;;0.70;0.70;;;11.40;87.30;;;;;;4917822;29;20107;-90
2021/09/21 11:09:53;;;;;;;1.77;1.15;;;11.50;85.50;;;;;;4900268;29;20040;-88
2021/09/21 11:12:24;;;;;;;1.05;0.98;;;11.60;85.70;;;;;;4903769;29;20043;-90
2021/09/21 11:14:52;;;;;;;1.02;0.77;;;11.60;84.90;;;;;;4923126;29;20036;-89
2021/09/21 11:17:27;;;;;;;0.85;0.82;;;11.60;85.30;;;;;;4921744;29;20040;-90
2021/09/21 11:19:56;;;;;;;2.05;1.23;;;11.70;85.50;;;;;;4924881;29;20033;-89
2021/09/21 11:22:31;;;;;;;1.10;0.90;;;11.80;84.20;;;;;;4923086;29;20107;-89
2021/09/21 11:25:05;;;;;;;1.45;1.00;;;12.00;82.80;;;;;;4922615;29;20391;-91
2021/09/21 11:27:39;;;;;;;1.50;1.25;;;12.00;82.00;;;;;;4913524;29;20172;-91
2021/09/21 11:30:13;;;;;;;3.25;1.13;;;12.00;82.80;;;;;;4920277;29;20573;-91
2021/09/21 11:32:42;;;;;;;2.53;1.05;;;11.90;82.30;;;;;;4911168;29;20064;-90
2021/09/21 11:35:14;;;;;;;3.75;1.10;;;11.80;83.10;;;;;;4921504;29;20468;-91
2021/09/21 11:37:46;;;;;;;1.38;1.05;;;11.70;83.60;;;;;;4906720;29;20052;-91
2021/09/21 11:40:42;;;;;;;3.90;1.25;;;11.70;83.70;;;;;;4922407;29;20051;-91
2021/09/21 11:43:10;;;;;;;1.23;1.23;;;11.70;84.00;;;;;;4904050;29;20469;-92
2021/09/21 11:45:36;;;;;;;1.38;1.10;;;11.70;83.60;;;;;;4916433;29;20095;-91
2021/09/21 11:48:02;;;;;;;1.25;1.15;;;11.70;83.00;;;;;;4930237;29;20048;-91
2021/09/21 11:50:33;;;;;;;1.30;1.20;;;11.70;82.70;;;;;;4935711;29;20104;-91
2021/09/21 11:53:05;;;;;;;1.25;1.20;;;11.60;83.00;;;;;;4931550;29;20043;-90
2021/09/21 11:55:34;;;;;;;2.28;2.00;;;11.60;82.40;;;;;;4937525;29;20130;-91
2021/09/21 11:58:02;;;;;;;2.45;1.15;;;11.50;83.10;;;;;;4924648;29;20043;-90
2021/09/21 12:00:35;;;;;;;1.30;1.20;;;11.40;83.00;;;;;;4933720;29;20055;-91
2021/09/21 12:03:08;;;;;;;1.42;1.17;;;11.40;82.90;;;;;;4952862;29;20102;-91
2021/09/21 12:05:37;;;;;;;1.45;1.35;;;11.50;83.40;;;;;;4944775;29;20044;-91
2021/09/21 12:08:13;;;;;;;2.65;1.50;;;11.60;83.40;;;;;;4914813;29;20047;-91
2021/09/21 12:10:43;;;;;;;1.55;1.33;;;11.70;83.30;;;;;;4914806;29;20032;-90
2021/09/21 12:13:16;;;;;;;1.33;0.98;;;11.90;83.50;;;;;;4922691;29;20036;-90
2021/09/21 12:15:49;;;;;;;1.50;1.30;;;12.10;82.90;;;;;;4918808;29;20139;-90
2021/09/21 12:18:15;;;;;;;1.95;1.30;;;12.10;80.30;;;;;;4955119;29;20133;-91
2021/09/21 12:20:42;;;;;;;2.47;1.20;;;12.00;79.30;;;;;;4937953;29;20396;-91
2021/09/21 12:23:10;;;;;;;1.35;1.25;;;11.90;79.60;;;;;;4919977;29;20040;-90
2021/09/21 12:25:40;;;;;;;1.27;1.17;;;11.90;80.10;;;;;;4923624;29;20079;-89
2021/09/21 12:28:09;;;;;;;1.13;1.00;;;11.80;80.40;;;;;;4909308;29;20050;-91
2021/09/21 12:30:41;;;;;;;1.83;1.63;;;11.70;80.50;;;;;;4925072;29;20044;-91
2021/09/21 12:33:09;;;;;;;1.63;1.30;;;11.70;79.70;;;;;;4929296;29;20032;-91
2021/09/21 12:35:51;;;;;;;1.63;1.27;;;11.50;80.00;;;;;;4926217;29;20126;-92
2021/09/21 12:38:26;;;;;;;1.38;1.10;;;11.40;79.70;;;;;;4919144;29;20032;-89
2021/09/21 12:41:05;;;;;;;1.08;0.98;;;11.20;80.30;;;;;;4944241;29;20103;-92
2021/09/21 12:43:41;;;;;;;1.83;1.10;;;11.00;80.90;;;;;;4947495;29;20032;-90
2021/09/21 12:46:12;;;;;;;2.33;1.65;;;11.00;82.20;;;;;;4921838;29;20044;-90
2021/09/21 12:48:41;;;;;;;3.67;1.10;;;10.90;82.20;;;;;;4946656;29;20097;-91
2021/09/21 12:51:09;;;;;;;1.63;1.23;;;10.90;82.30;;;;;;4911744;29;20393;-90
2021/09/21 12:53:35;;;;;;;2.53;1.42;;;10.80;82.70;;;;;;4925606;29;20039;-90
2021/09/21 12:56:06;;;;;;;1.40;1.30;;;10.90;82.30;;;;;;4935441;29;20510;-90
2021/09/21 12:58:35;;;;;;;1.55;1.30;;;10.90;82.10;;;;;;4924083;29;20130;-90
2021/09/21 13:01:06;;;;;;;1.00;0.95;;;10.90;82.10;;;;;;4938674;29;20032;-90
2021/09/21 13:03:33;;;;;;;1.58;1.00;;;10.90;82.40;;;;;;4937601;29;20055;-88